createdAt,value
2022-07-31T00:02:41.015Z,19.88
2022-07-31T00:06:56.374Z,19.05
2022-07-31T00:11:11.686Z,22.87
2022-07-31T00:15:25.999Z,20.27
2022-07-31T00:19:41.593Z,19.05
2022-07-31T00:23:58.333Z,20.48
2022-07-31T00:28:12.424Z,21.07
2022-07-31T00:32:26.128Z,19.80
2022-07-31T00:36:40.158Z,19.98
2022-07-31T00:40:56.747Z,22.90
2022-07-31T00:45:13.698Z,23.85
2022-07-31T00:49:37.278Z,20.55
2022-07-31T00:53:51.806Z,20.93
2022-07-31T00:58:07.235Z,19.63
2022-07-31T01:02:21.178Z,20.98
2022-07-31T01:06:37.591Z,21.95
2022-07-31T01:10:58.971Z,20.97
2022-07-31T01:15:16.367Z,19.65
2022-07-31T01:19:39.767Z,20.15
2022-07-31T01:24:30.455Z,20.13
2022-07-31T01:29:07.512Z,23.35
2022-07-31T01:33:29.851Z,21.25
2022-07-31T01:37:48.772Z,20.10
2022-07-31T01:42:06.174Z,20.40
2022-07-31T01:46:22.435Z,20.58
2022-07-31T01:50:42.315Z,20.27
2022-07-31T01:55:00.855Z,22.87
2022-07-31T01:59:22.484Z,21.88
2022-07-31T02:04:11.236Z,24.58
2022-07-31T02:08:26.672Z,22.80
2022-07-31T02:12:42.792Z,21.27
2022-07-31T02:16:57.455Z,22.13
2022-07-31T02:21:27.313Z,22.50
2022-07-31T02:25:42.205Z,23.48
2022-07-31T02:29:58.660Z,24.90
2022-07-31T02:34:14.722Z,21.48
2022-07-31T02:38:30.113Z,19.77
2022-07-31T02:42:44.503Z,20.73
2022-07-31T02:46:59.562Z,23.95
2022-07-31T02:51:13.826Z,21.97
2022-07-31T02:55:30.302Z,22.27
2022-07-31T02:59:45.067Z,24.65
2022-07-31T03:03:59.406Z,24.47
2022-07-31T03:08:15.377Z,21.88
2022-07-31T03:12:34.146Z,24.15
2022-07-31T03:16:49.494Z,24.33
2022-07-31T03:21:03.347Z,24.13
2022-07-31T03:25:21.660Z,26.40
2022-07-31T03:29:43.202Z,25.35
2022-07-31T03:33:58.113Z,25.37
2022-07-31T03:38:41.125Z,24.38
2022-07-31T03:42:51.205Z,30.15
2022-07-31T03:47:08.294Z,24.77
2022-07-31T03:51:22.358Z,23.73
2022-07-31T03:55:38.860Z,24.05
2022-07-31T03:59:56.319Z,23.50
2022-07-31T04:04:13.534Z,19.80
2022-07-31T04:08:42.540Z,20.05
2022-07-31T04:12:56.506Z,19.38
2022-07-31T04:17:11.323Z,18.23
2022-07-31T04:21:26.480Z,21.77
2022-07-31T04:25:40.301Z,18.52
2022-07-31T04:30:12.631Z,16.13
2022-07-31T04:34:27.050Z,15.73
2022-07-31T04:38:42.698Z,16.10
2022-07-31T04:42:57.978Z,14.02
2022-07-31T04:47:12.096Z,12.20
2022-07-31T04:51:29.756Z,15.02
2022-07-31T04:56:05.466Z,12.85
2022-07-31T05:00:19.470Z,12.93
2022-07-31T05:04:33.578Z,13.93
2022-07-31T05:08:47.483Z,12.35
2022-07-31T05:13:02.816Z,13.03
2022-07-31T05:17:18.329Z,10.90
2022-07-31T05:22:03.796Z,10.98
2022-07-31T05:26:27.736Z,11.70
2022-07-31T05:30:43.123Z,10.23
2022-07-31T05:34:57.239Z,10.88
2022-07-31T05:39:12.305Z,10.38
2022-07-31T05:43:25.972Z,10.77
2022-07-31T05:47:51.883Z,10.90
2022-07-31T05:52:06.730Z,9.38
2022-07-31T05:56:20.621Z,9.87
2022-07-31T06:00:37.613Z,10.52
2022-07-31T06:04:53.103Z,10.55
2022-07-31T06:09:06.884Z,9.95
2022-07-31T06:13:30.169Z,9.63
2022-07-31T06:17:48.844Z,12.98
2022-07-31T06:22:12.287Z,11.82
2022-07-31T06:26:27.592Z,9.40
2022-07-31T06:30:41.853Z,11.10
2022-07-31T06:34:55.948Z,12.63
2022-07-31T06:39:11.938Z,11.63
2022-07-31T06:43:46.116Z,12.40
2022-07-31T06:48:25.731Z,11.77
2022-07-31T06:52:49.991Z,10.63
2022-07-31T06:57:05.399Z,11.40
2022-07-31T07:01:19.338Z,10.50
2022-07-31T07:05:33.284Z,11.68
2022-07-31T07:09:48.632Z,11.60
2022-07-31T07:14:17.298Z,9.38
2022-07-31T07:18:31.172Z,12.10
2022-07-31T07:22:47.891Z,11.37
2022-07-31T07:27:14.571Z,10.20
2022-07-31T07:31:29.843Z,9.10
2022-07-31T07:35:44.760Z,10.07
2022-07-31T07:40:04.502Z,9.57
2022-07-31T07:44:18.399Z,11.50
2022-07-31T07:48:33.554Z,9.32
2022-07-31T07:53:05.250Z,9.83
2022-07-31T07:57:40.459Z,11.15
2022-07-31T08:02:13.655Z,9.13
2022-07-31T08:06:29.028Z,8.77
2022-07-31T08:10:43.261Z,8.93
2022-07-31T08:15:10.918Z,8.85
2022-07-31T08:19:39.961Z,9.00
2022-07-31T08:23:55.620Z,9.03
2022-07-31T08:28:13.797Z,8.45
2022-07-31T08:32:33.617Z,10.02
2022-07-31T08:37:50.797Z,8.63
2022-07-31T08:41:54.544Z,8.40
2022-07-31T08:46:10.620Z,9.13
2022-07-31T08:50:27.861Z,7.57
2022-07-31T08:54:46.039Z,8.15
2022-07-31T08:59:01.867Z,9.27
2022-07-31T09:03:16.559Z,8.18
2022-07-31T09:07:32.889Z,9.87
2022-07-31T09:11:49.939Z,8.30
2022-07-31T09:16:30.889Z,8.73
2022-07-31T09:20:56.097Z,8.27
2022-07-31T09:25:16.058Z,8.73
2022-07-31T09:29:38.859Z,6.63
2022-07-31T09:33:56.400Z,8.70
2022-07-31T09:38:13.174Z,7.95
2022-07-31T09:42:55.303Z,7.32
2022-07-31T09:47:23.064Z,7.15
2022-07-31T09:51:41.134Z,7.87
2022-07-31T09:55:58.129Z,8.88
2022-07-31T10:00:17.185Z,9.52
2022-07-31T10:04:32.740Z,7.77
2022-07-31T10:08:50.522Z,8.55
2022-07-31T10:13:13.239Z,7.25
2022-07-31T10:17:36.193Z,6.80
2022-07-31T10:22:24.294Z,8.18
2022-07-31T10:26:59.752Z,7.00
2022-07-31T10:31:13.888Z,6.80
2022-07-31T10:35:30.217Z,7.50
2022-07-31T10:40:02.409Z,5.82
2022-07-31T10:44:28.849Z,6.75
2022-07-31T10:49:08.518Z,7.87
2022-07-31T10:53:51.412Z,6.82
2022-07-31T10:58:28.030Z,6.63
2022-07-31T11:03:16.207Z,6.40
2022-07-31T11:07:48.935Z,6.00
2022-07-31T11:12:22.654Z,6.25
2022-07-31T11:16:55.909Z,5.10
2022-07-31T11:21:39.907Z,7.03
2022-07-31T11:25:53.946Z,5.78
2022-07-31T11:30:13.528Z,5.38
2022-07-31T11:34:27.809Z,6.83
2022-07-31T11:38:46.813Z,4.90
2022-07-31T11:48:12.433Z,5.80
2022-07-31T11:52:30.673Z,6.75
2022-07-31T11:56:48.856Z,5.88
2022-07-31T12:01:05.555Z,6.30
2022-07-31T12:05:19.351Z,5.70
2022-07-31T12:10:00.879Z,6.47
2022-07-31T12:14:29.088Z,5.75
2022-07-31T12:18:51.497Z,6.67
2022-07-31T12:23:06.961Z,7.22
2022-07-31T12:27:42.076Z,5.97
2022-07-31T12:31:58.769Z,6.83
2022-07-31T12:36:16.649Z,6.32
2022-07-31T12:40:30.709Z,6.22
2022-07-31T12:44:49.331Z,7.63
2022-07-31T12:49:04.872Z,5.43
2022-07-31T12:53:18.677Z,6.55
2022-07-31T12:57:32.650Z,5.97
2022-07-31T13:01:46.535Z,6.23
2022-07-31T13:06:01.675Z,5.15
2022-07-31T13:10:23.801Z,5.80
2022-07-31T13:14:38.575Z,4.80
2022-07-31T13:31:31.690Z,5.97
2022-07-31T13:35:45.443Z,5.03
2022-07-31T13:39:59.267Z,5.75
2022-07-31T13:44:12.981Z,5.18
2022-07-31T13:48:28.195Z,4.70
2022-07-31T13:52:41.951Z,6.78
2022-07-31T13:56:56.271Z,5.65
2022-07-31T14:01:10.177Z,5.23
2022-07-31T14:05:26.463Z,6.63
2022-07-31T14:15:18.211Z,5.18
2022-07-31T14:19:40.519Z,6.13
2022-07-31T14:23:59.747Z,5.10
2022-07-31T14:28:13.469Z,5.53
2022-07-31T14:32:27.304Z,5.10
2022-07-31T14:36:42.275Z,7.50
2022-07-31T14:40:57.363Z,6.13
2022-07-31T14:45:11.981Z,4.80
2022-07-31T14:49:25.811Z,5.40
2022-07-31T14:53:59.672Z,6.13
2022-07-31T14:58:14.799Z,5.38
2022-07-31T15:02:28.648Z,6.17
2022-07-31T15:06:55.963Z,6.43
2022-07-31T15:11:16.146Z,6.93
2022-07-31T15:15:31.913Z,8.20
2022-07-31T15:19:48.075Z,4.95
2022-07-31T15:24:01.907Z,5.90
2022-07-31T15:28:15.616Z,6.70
2022-07-31T15:32:30.835Z,6.40
2022-07-31T15:36:44.486Z,5.78
2022-07-31T15:40:58.267Z,6.45
2022-07-31T15:45:13.383Z,5.97
2022-07-31T15:49:28.606Z,5.85
2022-07-31T15:53:56.985Z,6.18
2022-07-31T15:58:10.748Z,5.77
2022-07-31T16:02:25.280Z,7.07
2022-07-31T16:06:40.428Z,6.30
2022-07-31T16:10:55.079Z,5.17
2022-07-31T16:15:11.296Z,6.03
2022-07-31T16:19:25.211Z,5.38
2022-07-31T16:23:40.663Z,6.20
2022-07-31T16:27:54.941Z,8.00
2022-07-31T16:32:09.220Z,6.05
2022-07-31T16:36:23.111Z,5.90
2022-07-31T16:40:38.260Z,4.97
2022-07-31T16:44:54.447Z,5.20
2022-07-31T16:49:28.367Z,5.93
2022-07-31T16:54:14.562Z,5.30
2022-07-31T16:58:19.505Z,5.40
2022-07-31T17:02:38.754Z,5.82
2022-07-31T17:06:52.584Z,6.53
2022-07-31T17:11:06.941Z,5.90
2022-07-31T17:15:22.502Z,7.60
2022-07-31T17:19:45.850Z,6.72
2022-07-31T17:24:01.096Z,5.43
2022-07-31T17:28:17.725Z,5.70
2022-07-31T17:32:33.909Z,5.82
2022-07-31T17:36:50.264Z,5.83
2022-07-31T17:41:04.637Z,8.23
2022-07-31T17:45:20.483Z,6.45
2022-07-31T17:49:37.890Z,5.93
2022-07-31T17:53:55.299Z,6.27
2022-07-31T17:58:12.724Z,6.93
2022-07-31T18:02:26.565Z,8.80
2022-07-31T18:06:41.719Z,7.73
2022-07-31T18:10:55.419Z,6.78
2022-07-31T18:15:11.928Z,7.38
2022-07-31T18:19:25.714Z,6.50
2022-07-31T18:23:43.664Z,6.65
2022-07-31T18:28:01.310Z,7.03
2022-07-31T18:32:15.001Z,6.18
2022-07-31T18:36:28.745Z,7.67
2022-07-31T18:40:43.834Z,7.78
2022-07-31T18:44:58.296Z,7.10
2022-07-31T18:50:58.844Z,6.63
2022-07-31T18:53:46.447Z,7.50
2022-07-31T18:58:02.134Z,7.50
2022-07-31T19:02:20.606Z,6.77
2022-07-31T19:06:35.839Z,7.00
2022-07-31T19:10:53.242Z,6.85
2022-07-31T19:15:09.509Z,7.15
2022-07-31T19:19:23.191Z,8.13
2022-07-31T19:23:37.858Z,7.97
2022-07-31T19:27:52.027Z,6.88
2022-07-31T19:32:07.896Z,6.77
2022-07-31T19:36:21.884Z,5.72
2022-07-31T19:40:35.792Z,6.55
2022-07-31T19:44:49.574Z,7.47
2022-07-31T19:49:05.082Z,7.10
2022-07-31T19:53:18.915Z,6.25
2022-07-31T19:57:32.698Z,5.97
2022-07-31T20:01:46.894Z,5.60
2022-07-31T20:06:02.098Z,6.60
2022-07-31T20:10:15.972Z,8.50
2022-07-31T20:14:29.752Z,6.43
2022-07-31T20:18:43.792Z,6.30
2022-07-31T20:22:58.943Z,8.07
2022-07-31T20:27:12.802Z,6.43
2022-07-31T20:31:26.960Z,10.05
2022-07-31T20:35:48.435Z,9.13
2022-07-31T20:40:06.919Z,6.93
2022-07-31T20:44:21.009Z,7.67
2022-07-31T20:48:38.978Z,6.97
2022-07-31T20:52:52.723Z,7.72
2022-07-31T20:57:08.075Z,8.13
2022-07-31T21:01:22.963Z,7.20
2022-07-31T21:05:36.922Z,7.28
2022-07-31T21:09:50.751Z,7.77
2022-07-31T21:14:05.938Z,6.47
2022-07-31T21:18:20.963Z,7.22
2022-07-31T21:22:35.063Z,6.63
2022-07-31T21:26:51.847Z,6.13
2022-07-31T21:31:12.393Z,6.53
2022-07-31T21:35:36.981Z,7.55
2022-07-31T21:39:52.411Z,5.77
2022-07-31T21:44:06.638Z,6.72
2022-07-31T21:48:24.972Z,7.97
2022-07-31T21:52:39.197Z,7.50
2022-07-31T21:56:53.605Z,9.05
2022-07-31T22:01:10.558Z,7.35
2022-07-31T22:05:43.509Z,6.03
2022-07-31T22:09:57.890Z,6.87
2022-07-31T22:14:11.804Z,6.40
2022-07-31T22:18:26.811Z,7.68
2022-07-31T22:22:46.281Z,6.37
2022-07-31T22:27:18.771Z,7.03
2022-07-31T22:31:32.825Z,6.57
2022-07-31T22:35:59.456Z,7.47
2022-07-31T22:40:18.330Z,6.00
2022-07-31T22:44:33.505Z,6.47
2022-07-31T22:48:47.542Z,7.13
2022-07-31T22:53:01.621Z,7.73
2022-07-31T22:57:17.346Z,7.07
2022-07-31T23:01:34.027Z,7.68
2022-07-31T23:06:28.184Z,8.63
2022-07-31T23:10:21.752Z,6.68
2022-07-31T23:14:37.235Z,6.97
2022-07-31T23:18:51.253Z,7.73
2022-07-31T23:23:04.983Z,7.63
2022-07-31T23:27:18.809Z,8.15
2022-07-31T23:31:34.207Z,7.75
2022-07-31T23:35:48.108Z,6.93
2022-07-31T23:40:02.067Z,7.63
2022-07-31T23:44:18.623Z,8.43
2022-07-31T23:48:40.263Z,8.47
2022-07-31T23:52:54.262Z,7.22
2022-07-31T23:57:08.027Z,6.68
